QFA8DP YPDN-YBRM
Flight info
| Callsign | QFA8DP |
|---|---|
| Flight time | 1h 39m |
| Altitude | 36000 |
| Route | HELLI J151 CIN J93 BRM |
| Aircraft | A320/M-SDE3FGHIRWY/LB1 |
Departure
| Time | 2026-05-08 18:24 |
|---|---|
| Airport | Darwin International Airport / RAAF Darwin (YPDN) |
Arrival
| Time | 2026-05-08 20:03 |
|---|---|
| Airport | Broome International Airport (YBRM) |
| Time | Latitude | Longitude | Altitude | Speed | Heading |
|---|---|---|---|---|---|
| 2026-05-08 18:00 | -12.40876 | 130.87683 | 91 ft | 0 kts | 21° |
| 2026-05-08 18:17 | -12.40891 | 130.87676 | 91 ft | 4 kts | 30° |
| 2026-05-08 18:18 | -12.40912 | 130.87660 | 95 ft | 4 kts | 50° |
| 2026-05-08 18:18 | -12.40923 | 130.87645 | 92 ft | 1 kts | 56° |
| 2026-05-08 18:18 | -12.40924 | 130.87643 | 92 ft | 0 kts | 56° |
| 2026-05-08 18:20 | -12.40925 | 130.87650 | 92 ft | 1 kts | 102° |
| 2026-05-08 18:20 | -12.40940 | 130.87647 | 92 ft | 3 kts | 191° |
| 2026-05-08 18:21 | -12.41006 | 130.87603 | 95 ft | 19 kts | 213° |
| 2026-05-08 18:21 | -12.41083 | 130.87546 | 99 ft | 13 kts | 258° |
| 2026-05-08 18:21 | -12.41058 | 130.87448 | 98 ft | 16 kts | 288° |
| 2026-05-08 18:21 | -12.41022 | 130.87338 | 98 ft | 17 kts | 289° |
| 2026-05-08 18:22 | -12.40980 | 130.87219 | 96 ft | 19 kts | 289° |
| 2026-05-08 18:22 | -12.40930 | 130.87080 | 92 ft | 23 kts | 297° |
| 2026-05-08 18:22 | -12.40905 | 130.86968 | 98 ft | 12 kts | 241° |
| 2026-05-08 18:22 | -12.40969 | 130.86936 | 102 ft | 10 kts | 186° |
| 2026-05-08 18:23 | -12.41049 | 130.86939 | 101 ft | 13 kts | 181° |
| 2026-05-08 18:23 | -12.41087 | 130.87001 | 100 ft | 12 kts | 111° |
| 2026-05-08 18:23 | -12.41161 | 130.87195 | 101 ft | 59 kts | 109° |
| 2026-05-08 18:23 | -12.41361 | 130.87792 | 101 ft | 115 kts | 108° |
| 2026-05-08 18:24 | -12.41680 | 130.88725 | 123 ft | 156 kts | 109° |
| 2026-05-08 18:24 | -12.42016 | 130.89729 | 729 ft | 148 kts | 109° |
| 2026-05-08 18:24 | -12.42353 | 130.90727 | 1308 ft | 147 kts | 111° |
| 2026-05-08 18:24 | -12.42971 | 130.91563 | 1841 ft | 155 kts | 141° |
| 2026-05-08 18:25 | -12.44122 | 130.91801 | 2058 ft | 194 kts | 186° |
| 2026-05-08 18:25 | -12.45374 | 130.91021 | 2261 ft | 230 kts | 218° |
| 2026-05-08 18:25 | -12.46473 | 130.89704 | 2525 ft | 257 kts | 227° |
| 2026-05-08 18:25 | -12.47556 | 130.88148 | 2983 ft | 277 kts | 232° |
| 2026-05-08 18:26 | -12.48646 | 130.86508 | 3821 ft | 280 kts | 233° |
| 2026-05-08 18:26 | -12.49757 | 130.84861 | 4689 ft | 282 kts | 233° |
| 2026-05-08 18:26 | -12.50902 | 130.83210 | 5516 ft | 286 kts | 233° |
| 2026-05-08 18:26 | -12.52079 | 130.81551 | 6375 ft | 289 kts | 233° |
| 2026-05-08 18:27 | -12.53278 | 130.79888 | 7169 ft | 291 kts | 233° |
| 2026-05-08 18:27 | -12.54081 | 130.78788 | 7691 ft | 292 kts | 233° |
| 2026-05-08 18:27 | -12.55724 | 130.76550 | 8725 ft | 295 kts | 234° |
| 2026-05-08 18:27 | -12.56962 | 130.74862 | 9510 ft | 297 kts | 234° |
| 2026-05-08 18:28 | -12.58207 | 130.73159 | 10192 ft | 302 kts | 235° |
| 2026-05-08 18:28 | -12.59506 | 130.71382 | 10393 ft | 323 kts | 235° |
| 2026-05-08 18:28 | -12.60897 | 130.69481 | 10512 ft | 344 kts | 235° |
| 2026-05-08 18:28 | -12.62370 | 130.67476 | 10827 ft | 357 kts | 234° |
| 2026-05-08 18:29 | -12.63876 | 130.65433 | 11365 ft | 361 kts | 235° |
| 2026-05-08 18:29 | -12.65393 | 130.63368 | 11946 ft | 364 kts | 235° |
| 2026-05-08 18:29 | -12.66917 | 130.61288 | 12542 ft | 367 kts | 236° |
| 2026-05-08 18:29 | -12.68457 | 130.59188 | 13122 ft | 370 kts | 236° |
| 2026-05-08 18:30 | -12.70006 | 130.57077 | 13695 ft | 372 kts | 236° |
| 2026-05-08 18:30 | -12.71567 | 130.54948 | 14207 ft | 375 kts | 236° |
| 2026-05-08 18:30 | -12.73134 | 130.52806 | 14733 ft | 377 kts | 237° |
| 2026-05-08 18:30 | -12.74704 | 130.50653 | 15260 ft | 378 kts | 237° |
| 2026-05-08 18:31 | -12.76282 | 130.48490 | 15796 ft | 380 kts | 237° |
| 2026-05-08 18:31 | -12.77869 | 130.46322 | 16338 ft | 381 kts | 237° |
| 2026-05-08 18:31 | -12.79464 | 130.44146 | 16902 ft | 383 kts | 237° |
| 2026-05-08 18:31 | -12.81068 | 130.41957 | 17449 ft | 385 kts | 237° |
| 2026-05-08 18:32 | -12.82678 | 130.39757 | 17989 ft | 386 kts | 237° |
| 2026-05-08 18:32 | -12.84291 | 130.37552 | 18479 ft | 388 kts | 237° |
| 2026-05-08 18:32 | -12.85917 | 130.35328 | 18934 ft | 391 kts | 237° |
| 2026-05-08 18:32 | -12.87549 | 130.33095 | 19393 ft | 393 kts | 237° |
| 2026-05-08 18:33 | -12.89196 | 130.30844 | 19875 ft | 395 kts | 237° |
| 2026-05-08 18:33 | -12.90845 | 130.28590 | 20332 ft | 397 kts | 237° |
| 2026-05-08 18:33 | -12.92480 | 130.26354 | 20787 ft | 399 kts | 237° |
| 2026-05-08 18:33 | -12.94149 | 130.24071 | 21225 ft | 401 kts | 237° |
| 2026-05-08 18:34 | -12.95825 | 130.21775 | 21649 ft | 403 kts | 237° |
| 2026-05-08 18:34 | -12.97508 | 130.19467 | 22059 ft | 405 kts | 237° |
| 2026-05-08 18:34 | -12.99200 | 130.17151 | 22444 ft | 407 kts | 236° |
| 2026-05-08 18:34 | -13.00905 | 130.14821 | 22833 ft | 409 kts | 236° |
| 2026-05-08 18:35 | -13.02617 | 130.12480 | 23179 ft | 412 kts | 236° |
| 2026-05-08 18:35 | -13.04337 | 130.10123 | 23526 ft | 414 kts | 236° |
| 2026-05-08 18:35 | -13.06066 | 130.07752 | 23816 ft | 415 kts | 236° |
| 2026-05-08 18:35 | -13.07794 | 130.05378 | 24112 ft | 417 kts | 236° |
| 2026-05-08 18:36 | -13.09530 | 130.02991 | 24409 ft | 418 kts | 236° |
| 2026-05-08 18:36 | -13.11270 | 130.00604 | 24742 ft | 418 kts | 237° |
| 2026-05-08 18:36 | -13.13014 | 129.98215 | 25057 ft | 418 kts | 237° |
| 2026-05-08 18:36 | -13.14755 | 129.95825 | 25355 ft | 419 kts | 237° |
| 2026-05-08 18:37 | -13.16504 | 129.93422 | 25644 ft | 420 kts | 237° |
| 2026-05-08 18:37 | -13.18254 | 129.91014 | 25922 ft | 421 kts | 237° |
| 2026-05-08 18:37 | -13.20008 | 129.88600 | 26206 ft | 423 kts | 237° |
| 2026-05-08 18:37 | -13.21766 | 129.86176 | 26468 ft | 424 kts | 237° |
| 2026-05-08 18:38 | -13.23528 | 129.83746 | 26731 ft | 425 kts | 237° |
| 2026-05-08 18:38 | -13.25298 | 129.81317 | 26993 ft | 426 kts | 236° |
| 2026-05-08 18:38 | -13.27099 | 129.78898 | 27299 ft | 427 kts | 236° |
| 2026-05-08 18:38 | -13.28920 | 129.76491 | 27593 ft | 427 kts | 236° |
| 2026-05-08 18:39 | -13.30135 | 129.74896 | 27769 ft | 428 kts | 236° |
| 2026-05-08 18:39 | -13.31973 | 129.72490 | 28038 ft | 429 kts | 236° |
| 2026-05-08 18:39 | -13.33808 | 129.70086 | 28402 ft | 427 kts | 236° |
| 2026-05-08 18:39 | -13.35636 | 129.67680 | 28807 ft | 425 kts | 236° |
| 2026-05-08 18:40 | -13.37441 | 129.65287 | 29196 ft | 424 kts | 237° |
| 2026-05-08 18:40 | -13.39238 | 129.62900 | 29606 ft | 422 kts | 237° |
| 2026-05-08 18:40 | -13.41031 | 129.60518 | 30018 ft | 420 kts | 237° |
| 2026-05-08 18:40 | -13.42818 | 129.58145 | 30358 ft | 419 kts | 237° |
| 2026-05-08 18:41 | -13.44593 | 129.55783 | 30690 ft | 417 kts | 237° |
| 2026-05-08 18:41 | -13.46362 | 129.53424 | 31024 ft | 416 kts | 237° |
| 2026-05-08 18:41 | -13.48128 | 129.51068 | 31354 ft | 416 kts | 237° |
| 2026-05-08 18:41 | -13.49889 | 129.48718 | 31679 ft | 415 kts | 237° |
| 2026-05-08 18:42 | -13.51653 | 129.46371 | 32023 ft | 415 kts | 237° |
| 2026-05-08 18:42 | -13.53416 | 129.44027 | 32369 ft | 414 kts | 237° |
| 2026-05-08 18:42 | -13.55171 | 129.41690 | 32699 ft | 413 kts | 237° |
| 2026-05-08 18:42 | -13.56926 | 129.39352 | 33049 ft | 412 kts | 238° |
| 2026-05-08 18:43 | -13.58675 | 129.37020 | 33397 ft | 412 kts | 238° |
| 2026-05-08 18:43 | -13.60402 | 129.34721 | 33727 ft | 411 kts | 238° |
| 2026-05-08 18:43 | -13.62173 | 129.32366 | 34046 ft | 411 kts | 238° |
| 2026-05-08 18:43 | -13.63898 | 129.30076 | 34334 ft | 410 kts | 238° |
| 2026-05-08 18:44 | -13.65645 | 129.27758 | 34615 ft | 409 kts | 238° |
| 2026-05-08 18:44 | -13.67383 | 129.25446 | 34872 ft | 409 kts | 238° |
| 2026-05-08 18:44 | -13.69120 | 129.23129 | 35132 ft | 408 kts | 238° |
| 2026-05-08 18:44 | -13.70852 | 129.20815 | 35381 ft | 408 kts | 239° |
| 2026-05-08 18:45 | -13.72581 | 129.18502 | 35617 ft | 408 kts | 239° |
| 2026-05-08 18:45 | -13.74307 | 129.16191 | 35846 ft | 408 kts | 239° |
| 2026-05-08 18:45 | -13.77784 | 129.11531 | 35962 ft | 415 kts | 239° |
| 2026-05-08 18:46 | -13.81332 | 129.06787 | 35957 ft | 419 kts | 238° |
| 2026-05-08 18:46 | -13.84899 | 129.02032 | 35958 ft | 420 kts | 238° |
| 2026-05-08 18:47 | -13.88442 | 128.97301 | 35957 ft | 420 kts | 238° |
| 2026-05-08 18:47 | -13.92005 | 128.92541 | 35957 ft | 420 kts | 238° |
| 2026-05-08 18:48 | -13.95566 | 128.87769 | 35968 ft | 421 kts | 238° |
| 2026-05-08 18:48 | -13.99123 | 128.82989 | 35974 ft | 420 kts | 238° |
| 2026-05-08 18:49 | -14.02681 | 128.78209 | 35986 ft | 421 kts | 238° |
| 2026-05-08 18:49 | -14.06243 | 128.73437 | 35981 ft | 420 kts | 238° |
| 2026-05-08 18:50 | -14.09804 | 128.68669 | 35977 ft | 420 kts | 238° |
| 2026-05-08 18:50 | -14.13353 | 128.63891 | 35983 ft | 420 kts | 239° |
| 2026-05-08 18:51 | -14.16905 | 128.59115 | 35990 ft | 420 kts | 238° |
| 2026-05-08 18:51 | -14.20468 | 128.54344 | 35988 ft | 420 kts | 238° |
| 2026-05-08 18:52 | -14.24024 | 128.49566 | 35989 ft | 420 kts | 239° |
| 2026-05-08 18:52 | -14.27574 | 128.44787 | 35989 ft | 420 kts | 239° |
| 2026-05-08 18:53 | -14.31123 | 128.40002 | 35996 ft | 420 kts | 239° |
| 2026-05-08 18:53 | -14.34651 | 128.35252 | 35995 ft | 420 kts | 239° |
| 2026-05-08 18:54 | -14.38207 | 128.30461 | 35988 ft | 420 kts | 239° |
| 2026-05-08 18:54 | -14.41755 | 128.25670 | 35991 ft | 420 kts | 239° |
| 2026-05-08 18:55 | -14.47076 | 128.18492 | 36012 ft | 420 kts | 239° |
| 2026-05-08 18:56 | -14.50633 | 128.13691 | 35984 ft | 425 kts | 239° |
| 2026-05-08 18:56 | -14.54251 | 128.08793 | 35984 ft | 433 kts | 238° |
| 2026-05-08 18:57 | -14.57930 | 128.03821 | 35985 ft | 438 kts | 238° |
| 2026-05-08 18:57 | -14.61640 | 127.98803 | 35985 ft | 441 kts | 238° |
| 2026-05-08 18:58 | -14.65336 | 127.93811 | 35987 ft | 440 kts | 238° |
| 2026-05-08 18:58 | -14.69045 | 127.88785 | 35989 ft | 440 kts | 238° |
| 2026-05-08 18:59 | -14.72756 | 127.83758 | 35994 ft | 440 kts | 238° |
| 2026-05-08 18:59 | -14.76466 | 127.78724 | 36021 ft | 441 kts | 239° |
| 2026-05-08 19:00 | -14.80175 | 127.73684 | 36020 ft | 440 kts | 239° |
| 2026-05-08 19:00 | -14.83879 | 127.68650 | 36030 ft | 440 kts | 239° |
| 2026-05-08 19:01 | -14.87584 | 127.63630 | 36026 ft | 438 kts | 239° |
| 2026-05-08 19:01 | -14.91271 | 127.58613 | 36028 ft | 438 kts | 239° |
| 2026-05-08 19:02 | -14.94947 | 127.53598 | 36024 ft | 437 kts | 239° |
| 2026-05-08 19:02 | -14.98625 | 127.48586 | 36024 ft | 437 kts | 239° |
| 2026-05-08 19:03 | -15.02305 | 127.43571 | 36033 ft | 437 kts | 239° |
| 2026-05-08 19:03 | -15.05975 | 127.38563 | 36033 ft | 437 kts | 239° |
| 2026-05-08 19:04 | -15.09649 | 127.33546 | 36038 ft | 436 kts | 239° |
| 2026-05-08 19:04 | -15.13313 | 127.28545 | 36038 ft | 436 kts | 239° |
| 2026-05-08 19:05 | -15.16959 | 127.23584 | 36050 ft | 435 kts | 239° |
| 2026-05-08 19:05 | -15.20636 | 127.18561 | 36048 ft | 434 kts | 239° |
| 2026-05-08 19:06 | -15.24249 | 127.13610 | 36044 ft | 433 kts | 239° |
| 2026-05-08 19:06 | -15.27877 | 127.08632 | 36051 ft | 433 kts | 239° |
| 2026-05-08 19:07 | -15.31510 | 127.03656 | 36048 ft | 433 kts | 239° |
| 2026-05-08 19:07 | -15.35142 | 126.98681 | 36051 ft | 433 kts | 239° |
| 2026-05-08 19:08 | -15.38771 | 126.93703 | 36055 ft | 433 kts | 239° |
| 2026-05-08 19:08 | -15.42396 | 126.88729 | 36056 ft | 432 kts | 239° |
| 2026-05-08 19:09 | -15.46019 | 126.83754 | 36051 ft | 432 kts | 239° |
| 2026-05-08 19:09 | -15.49639 | 126.78786 | 36055 ft | 432 kts | 239° |
| 2026-05-08 19:10 | -15.53248 | 126.73813 | 36071 ft | 430 kts | 240° |
| 2026-05-08 19:10 | -15.56818 | 126.68896 | 36039 ft | 425 kts | 240° |
| 2026-05-08 19:11 | -15.60371 | 126.64003 | 36028 ft | 424 kts | 240° |
| 2026-05-08 19:11 | -15.63920 | 126.59114 | 36031 ft | 424 kts | 240° |
| 2026-05-08 19:12 | -15.67470 | 126.54223 | 36033 ft | 424 kts | 240° |
| 2026-05-08 19:12 | -15.71016 | 126.49320 | 36046 ft | 424 kts | 240° |
| 2026-05-08 19:13 | -15.74522 | 126.44462 | 36037 ft | 423 kts | 240° |
| 2026-05-08 19:13 | -15.78059 | 126.39586 | 36039 ft | 422 kts | 240° |
| 2026-05-08 19:14 | -15.81598 | 126.34711 | 36039 ft | 422 kts | 240° |
| 2026-05-08 19:14 | -15.85118 | 126.29827 | 36037 ft | 422 kts | 240° |
| 2026-05-08 19:15 | -15.88628 | 126.24943 | 36046 ft | 422 kts | 240° |
| 2026-05-08 19:15 | -15.92149 | 126.20070 | 36056 ft | 421 kts | 240° |
| 2026-05-08 19:16 | -15.95666 | 126.15212 | 36043 ft | 420 kts | 240° |
| 2026-05-08 19:16 | -15.99180 | 126.10349 | 36047 ft | 421 kts | 240° |
| 2026-05-08 19:17 | -16.02687 | 126.05478 | 36053 ft | 421 kts | 240° |
| 2026-05-08 19:17 | -16.06191 | 126.00593 | 36042 ft | 421 kts | 240° |
| 2026-05-08 19:18 | -16.09698 | 125.95723 | 36045 ft | 420 kts | 240° |
| 2026-05-08 19:18 | -16.13178 | 125.90888 | 36039 ft | 420 kts | 240° |
| 2026-05-08 19:19 | -16.16696 | 125.85985 | 36042 ft | 420 kts | 240° |
| 2026-05-08 19:19 | -16.20196 | 125.81111 | 36041 ft | 420 kts | 240° |
| 2026-05-08 19:20 | -16.23703 | 125.76238 | 36050 ft | 421 kts | 240° |
| 2026-05-08 19:20 | -16.27193 | 125.71381 | 36053 ft | 421 kts | 240° |
| 2026-05-08 19:21 | -16.30688 | 125.66487 | 36089 ft | 421 kts | 240° |
| 2026-05-08 19:21 | -16.34185 | 125.61579 | 36070 ft | 421 kts | 240° |
| 2026-05-08 19:22 | -16.37689 | 125.56690 | 36062 ft | 421 kts | 240° |
| 2026-05-08 19:22 | -16.41183 | 125.51813 | 36057 ft | 420 kts | 240° |
| 2026-05-08 19:23 | -16.44676 | 125.46925 | 36059 ft | 420 kts | 240° |
| 2026-05-08 19:23 | -16.48161 | 125.42045 | 36058 ft | 420 kts | 240° |
| 2026-05-08 19:24 | -16.51644 | 125.37159 | 36058 ft | 420 kts | 240° |
| 2026-05-08 19:24 | -16.55125 | 125.32270 | 36056 ft | 420 kts | 240° |
| 2026-05-08 19:25 | -16.58583 | 125.27414 | 36057 ft | 420 kts | 240° |
| 2026-05-08 19:25 | -16.62072 | 125.22532 | 36067 ft | 417 kts | 240° |
| 2026-05-08 19:26 | -16.65535 | 125.17678 | 36122 ft | 418 kts | 240° |
| 2026-05-08 19:26 | -16.69000 | 125.12814 | 36131 ft | 417 kts | 240° |
| 2026-05-08 19:27 | -16.71875 | 125.08760 | 36170 ft | 418 kts | 240° |
| 2026-05-08 19:27 | -16.75339 | 125.03882 | 36246 ft | 419 kts | 240° |
| 2026-05-08 19:28 | -16.78826 | 124.98966 | 36272 ft | 418 kts | 239° |
| 2026-05-08 19:28 | -16.82261 | 124.94127 | 36186 ft | 417 kts | 240° |
| 2026-05-08 19:29 | -16.85712 | 124.89250 | 36209 ft | 418 kts | 240° |
| 2026-05-08 19:29 | -16.89168 | 124.84369 | 36265 ft | 418 kts | 240° |
| 2026-05-08 19:30 | -16.92631 | 124.79480 | 36219 ft | 417 kts | 240° |
| 2026-05-08 19:30 | -16.94347 | 124.77058 | 35827 ft | 413 kts | 240° |
| 2026-05-08 19:30 | -16.96054 | 124.74653 | 35136 ft | 411 kts | 239° |
| 2026-05-08 19:30 | -16.97754 | 124.72253 | 34408 ft | 411 kts | 239° |
| 2026-05-08 19:31 | -16.99451 | 124.69847 | 33587 ft | 412 kts | 239° |
| 2026-05-08 19:31 | -17.01153 | 124.67430 | 32688 ft | 414 kts | 239° |
| 2026-05-08 19:31 | -17.02866 | 124.64995 | 31772 ft | 416 kts | 238° |
| 2026-05-08 19:31 | -17.04582 | 124.62559 | 30948 ft | 416 kts | 238° |
| 2026-05-08 19:32 | -17.06295 | 124.60136 | 30270 ft | 413 kts | 238° |
| 2026-05-08 19:32 | -17.07998 | 124.57729 | 29564 ft | 410 kts | 238° |
| 2026-05-08 19:32 | -17.09662 | 124.55375 | 28890 ft | 406 kts | 238° |
| 2026-05-08 19:32 | -17.11333 | 124.53009 | 28206 ft | 403 kts | 238° |
| 2026-05-08 19:33 | -17.12996 | 124.50653 | 27529 ft | 400 kts | 238° |
| 2026-05-08 19:33 | -17.14638 | 124.48322 | 26866 ft | 397 kts | 238° |
| 2026-05-08 19:33 | -17.16271 | 124.46001 | 26237 ft | 394 kts | 238° |
| 2026-05-08 19:33 | -17.17891 | 124.43701 | 25612 ft | 392 kts | 238° |
| 2026-05-08 19:34 | -17.19500 | 124.41414 | 25005 ft | 389 kts | 238° |
| 2026-05-08 19:34 | -17.21099 | 124.39135 | 24408 ft | 387 kts | 238° |
| 2026-05-08 19:34 | -17.22686 | 124.36871 | 23820 ft | 385 kts | 238° |
| 2026-05-08 19:34 | -17.24266 | 124.34621 | 23184 ft | 384 kts | 238° |
| 2026-05-08 19:35 | -17.25845 | 124.32377 | 22549 ft | 382 kts | 238° |
| 2026-05-08 19:35 | -17.27415 | 124.30144 | 21950 ft | 380 kts | 237° |
| 2026-05-08 19:35 | -17.28975 | 124.27922 | 21388 ft | 378 kts | 237° |
| 2026-05-08 19:35 | -17.30526 | 124.25711 | 20839 ft | 376 kts | 237° |
| 2026-05-08 19:36 | -17.32073 | 124.23509 | 20326 ft | 374 kts | 237° |
| 2026-05-08 19:36 | -17.33612 | 124.21321 | 19833 ft | 373 kts | 236° |
| 2026-05-08 19:36 | -17.35140 | 124.19141 | 19354 ft | 370 kts | 236° |
| 2026-05-08 19:36 | -17.36657 | 124.16974 | 18899 ft | 368 kts | 236° |
| 2026-05-08 19:37 | -17.38170 | 124.14811 | 18886 ft | 371 kts | 236° |
| 2026-05-08 19:37 | -17.39683 | 124.12647 | 19413 ft | 374 kts | 236° |
| 2026-05-08 19:37 | -17.41222 | 124.10445 | 19854 ft | 376 kts | 236° |
| 2026-05-08 19:37 | -17.42770 | 124.08236 | 19998 ft | 376 kts | 236° |
| 2026-05-08 19:38 | -17.44318 | 124.06030 | 20029 ft | 376 kts | 237° |
| 2026-05-08 19:38 | -17.45863 | 124.03821 | 20035 ft | 375 kts | 237° |
| 2026-05-08 19:38 | -17.47407 | 124.01616 | 20032 ft | 375 kts | 237° |
| 2026-05-08 19:38 | -17.48953 | 123.99410 | 20047 ft | 375 kts | 237° |
| 2026-05-08 19:39 | -17.50495 | 123.97204 | 20033 ft | 375 kts | 237° |
| 2026-05-08 19:39 | -17.52035 | 123.94997 | 20037 ft | 375 kts | 237° |
| 2026-05-08 19:39 | -17.53574 | 123.92790 | 20035 ft | 374 kts | 237° |
| 2026-05-08 19:39 | -17.55109 | 123.90594 | 20035 ft | 374 kts | 236° |
| 2026-05-08 19:40 | -17.56648 | 123.88395 | 20041 ft | 374 kts | 237° |
| 2026-05-08 19:40 | -17.58032 | 123.86097 | 20002 ft | 372 kts | 244° |
| 2026-05-08 19:40 | -17.59089 | 123.83639 | 20002 ft | 370 kts | 251° |
| 2026-05-08 19:40 | -17.59812 | 123.81051 | 20003 ft | 369 kts | 258° |
| 2026-05-08 19:41 | -17.60392 | 123.78429 | 20004 ft | 369 kts | 257° |
| 2026-05-08 19:41 | -17.60982 | 123.75811 | 20002 ft | 369 kts | 257° |
| 2026-05-08 19:41 | -17.61576 | 123.73191 | 20041 ft | 369 kts | 257° |
| 2026-05-08 19:41 | -17.62168 | 123.70573 | 20040 ft | 369 kts | 257° |
| 2026-05-08 19:42 | -17.62755 | 123.67954 | 20043 ft | 369 kts | 257° |
| 2026-05-08 19:42 | -17.63345 | 123.65333 | 20040 ft | 369 kts | 257° |
| 2026-05-08 19:42 | -17.63933 | 123.62720 | 20039 ft | 369 kts | 257° |
| 2026-05-08 19:42 | -17.64522 | 123.60103 | 20039 ft | 369 kts | 257° |
| 2026-05-08 19:43 | -17.65110 | 123.57489 | 20034 ft | 369 kts | 257° |
| 2026-05-08 19:43 | -17.65699 | 123.54872 | 20040 ft | 369 kts | 257° |
| 2026-05-08 19:43 | -17.66286 | 123.52256 | 20041 ft | 369 kts | 257° |
| 2026-05-08 19:43 | -17.66872 | 123.49642 | 20040 ft | 369 kts | 257° |
| 2026-05-08 19:44 | -17.67456 | 123.47025 | 20041 ft | 368 kts | 257° |
| 2026-05-08 19:44 | -17.68039 | 123.44407 | 20040 ft | 369 kts | 257° |
| 2026-05-08 19:44 | -17.68621 | 123.41788 | 20040 ft | 369 kts | 257° |
| 2026-05-08 19:44 | -17.69196 | 123.39206 | 20039 ft | 369 kts | 257° |
| 2026-05-08 19:45 | -17.69781 | 123.36586 | 20043 ft | 369 kts | 257° |
| 2026-05-08 19:45 | -17.70373 | 123.33934 | 20042 ft | 369 kts | 257° |
| 2026-05-08 19:45 | -17.70951 | 123.31348 | 20015 ft | 369 kts | 257° |
| 2026-05-08 19:45 | -17.71542 | 123.28697 | 19776 ft | 368 kts | 257° |
| 2026-05-08 19:46 | -17.72115 | 123.26121 | 19543 ft | 367 kts | 257° |
| 2026-05-08 19:46 | -17.72694 | 123.23516 | 19312 ft | 367 kts | 257° |
| 2026-05-08 19:46 | -17.73853 | 123.18314 | 18862 ft | 366 kts | 257° |
| 2026-05-08 19:47 | -17.74434 | 123.15708 | 18633 ft | 366 kts | 257° |
| 2026-05-08 19:47 | -17.75027 | 123.13043 | 18413 ft | 388 kts | 256° |
| 2026-05-08 19:47 | -17.75656 | 123.10209 | 18165 ft | 407 kts | 256° |
| 2026-05-08 19:47 | -17.76299 | 123.07293 | 17901 ft | 414 kts | 257° |
| 2026-05-08 19:48 | -17.76950 | 123.04332 | 17646 ft | 418 kts | 257° |
| 2026-05-08 19:48 | -17.77607 | 123.01359 | 17389 ft | 419 kts | 257° |
| 2026-05-08 19:48 | -17.78265 | 122.98388 | 17131 ft | 418 kts | 257° |
| 2026-05-08 19:48 | -17.78924 | 122.95422 | 16881 ft | 417 kts | 257° |
| 2026-05-08 19:49 | -17.79580 | 122.92454 | 16628 ft | 417 kts | 257° |
| 2026-05-08 19:49 | -17.80231 | 122.89491 | 16379 ft | 416 kts | 257° |
| 2026-05-08 19:49 | -17.80876 | 122.86532 | 16130 ft | 415 kts | 257° |
| 2026-05-08 19:49 | -17.81518 | 122.83590 | 15889 ft | 414 kts | 257° |
| 2026-05-08 19:50 | -17.82162 | 122.80642 | 15646 ft | 414 kts | 257° |
| 2026-05-08 19:50 | -17.82810 | 122.77696 | 15405 ft | 413 kts | 257° |
| 2026-05-08 19:50 | -17.83457 | 122.74759 | 15167 ft | 413 kts | 257° |
| 2026-05-08 19:50 | -17.84102 | 122.71829 | 14932 ft | 410 kts | 257° |
| 2026-05-08 19:51 | -17.84732 | 122.68967 | 14692 ft | 394 kts | 257° |
| 2026-05-08 19:51 | -17.85340 | 122.66220 | 14454 ft | 380 kts | 257° |
| 2026-05-08 19:51 | -17.85923 | 122.63574 | 13886 ft | 376 kts | 257° |
| 2026-05-08 19:51 | -17.86338 | 122.60870 | 13074 ft | 377 kts | 269° |
| 2026-05-08 19:52 | -17.85944 | 122.58154 | 12265 ft | 379 kts | 284° |
| 2026-05-08 19:52 | -17.85347 | 122.55471 | 11483 ft | 377 kts | 277° |
| 2026-05-08 19:52 | -17.84986 | 122.52784 | 11170 ft | 360 kts | 276° |
| 2026-05-08 19:52 | -17.84676 | 122.50259 | 11009 ft | 329 kts | 273° |
| 2026-05-08 19:53 | -17.84536 | 122.47987 | 10894 ft | 303 kts | 271° |
| 2026-05-08 19:53 | -17.84427 | 122.45850 | 10779 ft | 286 kts | 271° |
| 2026-05-08 19:53 | -17.84319 | 122.43776 | 10449 ft | 285 kts | 271° |
| 2026-05-08 19:53 | -17.84209 | 122.41703 | 10111 ft | 285 kts | 271° |
| 2026-05-08 19:54 | -17.84095 | 122.39631 | 9782 ft | 284 kts | 271° |
| 2026-05-08 19:54 | -17.83983 | 122.37569 | 9434 ft | 282 kts | 271° |
| 2026-05-08 19:54 | -17.83875 | 122.35515 | 9107 ft | 281 kts | 271° |
| 2026-05-08 19:54 | -17.83765 | 122.33472 | 8777 ft | 279 kts | 271° |
| 2026-05-08 19:55 | -17.83651 | 122.31438 | 8403 ft | 279 kts | 271° |
| 2026-05-08 19:55 | -17.83544 | 122.29410 | 8099 ft | 277 kts | 271° |
| 2026-05-08 19:55 | -17.83451 | 122.27389 | 7747 ft | 277 kts | 271° |
| 2026-05-08 19:55 | -17.83378 | 122.25401 | 7624 ft | 268 kts | 271° |
| 2026-05-08 19:56 | -17.83311 | 122.23472 | 7499 ft | 259 kts | 271° |
| 2026-05-08 19:56 | -17.83298 | 122.21603 | 7245 ft | 256 kts | 262° |
| 2026-05-08 19:56 | -17.83827 | 122.19814 | 6858 ft | 259 kts | 247° |
| 2026-05-08 19:56 | -17.84534 | 122.18061 | 6478 ft | 263 kts | 249° |
| 2026-05-08 19:57 | -17.84877 | 122.16192 | 6068 ft | 263 kts | 275° |
| 2026-05-08 19:57 | -17.84472 | 122.14323 | 5664 ft | 264 kts | 290° |
| 2026-05-08 19:57 | -17.83922 | 122.12501 | 5275 ft | 268 kts | 286° |
| 2026-05-08 19:57 | -17.83835 | 122.10545 | 4893 ft | 272 kts | 260° |
| 2026-05-08 19:58 | -17.84546 | 122.08748 | 4594 ft | 260 kts | 231° |
| 2026-05-08 19:58 | -17.85819 | 122.07506 | 4471 ft | 243 kts | 206° |
| 2026-05-08 19:58 | -17.87338 | 122.06916 | 4329 ft | 226 kts | 180° |
| 2026-05-08 19:58 | -17.88840 | 122.06946 | 4201 ft | 208 kts | 161° |
| 2026-05-08 19:59 | -17.90128 | 122.07462 | 4051 ft | 192 kts | 141° |
| 2026-05-08 19:59 | -17.91126 | 122.08310 | 3927 ft | 177 kts | 126° |
| 2026-05-08 19:59 | -17.91792 | 122.09329 | 3787 ft | 162 kts | 112° |
| 2026-05-08 19:59 | -17.92148 | 122.10384 | 3656 ft | 145 kts | 99° |
| 2026-05-08 20:00 | -17.92245 | 122.11393 | 3448 ft | 135 kts | 89° |
| 2026-05-08 20:00 | -17.92256 | 122.12376 | 3152 ft | 135 kts | 90° |
| 2026-05-08 20:00 | -17.92374 | 122.13340 | 2855 ft | 130 kts | 101° |
| 2026-05-08 20:00 | -17.92614 | 122.14245 | 2374 ft | 128 kts | 104° |
| 2026-05-08 20:01 | -17.92855 | 122.15144 | 2092 ft | 130 kts | 105° |
| 2026-05-08 20:01 | -17.93103 | 122.16063 | 1810 ft | 131 kts | 105° |
| 2026-05-08 20:01 | -17.93338 | 122.16944 | 1515 ft | 121 kts | 105° |
| 2026-05-08 20:01 | -17.93562 | 122.17786 | 1268 ft | 120 kts | 106° |
| 2026-05-08 20:02 | -17.93787 | 122.18630 | 1007 ft | 121 kts | 107° |
| 2026-05-08 20:02 | -17.94022 | 122.19495 | 673 ft | 128 kts | 107° |
| 2026-05-08 20:02 | -17.94257 | 122.20387 | 355 ft | 127 kts | 106° |
| 2026-05-08 20:02 | -17.94480 | 122.21285 | 140 ft | 126 kts | 108° |
| 2026-05-08 20:03 | -17.94718 | 122.22133 | 57 ft | 97 kts | 104° |
| 2026-05-08 20:03 | -17.94828 | 122.22570 | 55 ft | 44 kts | 106° |
| 2026-05-08 20:03 | -17.94901 | 122.22833 | 49 ft | 31 kts | 107° |
| 2026-05-08 20:03 | -17.94953 | 122.23022 | 43 ft | 24 kts | 104° |
| 2026-05-08 20:04 | -17.94997 | 122.23198 | 39 ft | 26 kts | 105° |
| 2026-05-08 20:04 | -17.95036 | 122.23346 | 36 ft | 13 kts | 109° |
| 2026-05-08 20:04 | -17.95118 | 122.23376 | 34 ft | 15 kts | 195° |
| 2026-05-08 20:04 | -17.95186 | 122.23326 | 37 ft | 12 kts | 242° |
| 2026-05-08 20:05 | -17.95264 | 122.23287 | 37 ft | 14 kts | 191° |
| 2026-05-08 20:05 | -17.95322 | 122.23276 | 37 ft | 6 kts | 162° |
| 2026-05-08 20:05 | -17.95315 | 122.23313 | 36 ft | 7 kts | 72° |
| 2026-05-08 20:05 | -17.95313 | 122.23319 | 37 ft | 0 kts | 72° |